Time;durP1;ratioP1;P1;durP2;ratioP2;P2;SDS_P1;SDS_P2;PMS_P1;PMS_P2;Temp;Humidity;BMP_temperature;BMP_pressure;BME280_temperature;BME280_humidity;BME280_pressure;Samples;Min_cycle;Max_cycle;Signal;HPM_P1;HPM_P2
2021/12/16 00:01:57;;;;;;;0.10;0.10;;;;;;;10.65;70.01;103491.69;5048384;28;20118;-84
2021/12/16 00:07:56;;;;;;;0.10;0.10;;;;;;;10.71;70.11;103500.63;5045247;28;20048;-84
2021/12/16 00:10:04;;;;;;;0.40;0.40;;;;;;;10.75;70.19;103492.75;5043605;28;20488;-84
2021/12/16 00:29:42;;;;;;;0.95;0.95;;;;;;;10.93;70.60;103500.25;5084467;28;20029;-83
2021/12/16 00:32:17;;;;;;;0.30;0.30;;;;;;;11.00;70.17;103498.59;5073100;28;20044;-84
2021/12/16 00:34:44;;;;;;;0.10;0.10;;;;;;;11.02;70.38;103496.88;5080666;28;20111;-84
2021/12/16 00:37:10;;;;;;;0.57;0.57;;;;;;;11.04;70.21;103495.16;5089911;28;20115;-84
2021/12/16 00:39:38;;;;;;;0.20;0.20;;;;;;;11.04;70.28;103495.16;5084181;28;20032;-85
2021/12/16 00:42:12;;;;;;;0.20;0.20;;;;;;;11.07;70.10;103499.63;5085593;28;20123;-84
2021/12/16 00:58:32;;;;;;;0.10;0.10;;;;;;;11.19;70.03;103498.97;5065463;27;20436;-84
2021/12/16 01:01:09;;;;;;;0.10;0.10;;;;;;;11.17;70.05;103504.25;5035224;28;20034;-84
2021/12/16 01:03:46;;;;;;;0.75;0.75;;;;;;;11.20;69.75;103501.66;5031879;28;20436;-84
2021/12/16 01:06:31;;;;;;;0.90;0.90;;;;;;;11.21;70.02;103502.56;5038714;28;20120;-84
2021/12/16 01:34:33;;;;;;;3.00;1.30;;;;;;;11.27;69.45;103538.06;5043277;28;20036;-85
2021/12/16 01:50:53;;;;;;;1.98;1.88;;;;;;;10.96;69.19;103534.78;5035711;28;20045;-84
2021/12/16 01:53:48;;;;;;;0.10;0.10;;;;;;;10.93;69.27;103540.03;5050488;28;20056;-84
2021/12/16 01:56:20;;;;;;;0.55;0.55;;;;;;;10.94;69.42;103544.47;5050539;28;20034;-85
2021/12/16 01:58:49;;;;;;;0.10;0.10;;;;;;;10.95;69.63;103556.88;5034963;28;20079;-84
2021/12/16 02:01:20;;;;;;;1.10;1.02;;;;;;;10.98;69.72;103564.00;5050329;28;20048;-84
2021/12/16 02:09:26;;;;;;;0.60;0.60;;;;;;;11.00;69.92;103568.50;5060400;27;20442;-84
2021/12/16 02:12:00;;;;;;;0.28;0.28;;;;;;;10.93;69.49;103558.59;5071297;28;20573;-85
2021/12/16 02:29:22;;;;;;;0.20;0.20;;;;;;;10.68;69.64;103576.59;5048117;28;20044;-84
2021/12/16 02:31:22;;;;;;;0.10;0.10;;;;;;;10.61;69.75;103579.06;5033684;28;20034;-84
2021/12/16 02:36:41;;;;;;;0.10;0.10;;;;;;;10.58;69.86;103571.03;5128265;27;20405;-84
2021/12/16 02:39:15;;;;;;;0.85;0.85;;;;;;;10.62;69.76;103572.91;5119186;28;20035;-84
2021/12/16 02:41:44;;;;;;;0.30;0.30;;;;;;;10.59;69.92;103573.75;5127803;28;20118;-85
2021/12/16 02:44:20;;;;;;;0.20;0.20;;;;;;;10.59;69.88;103575.47;5129485;28;20032;-85
2021/12/16 02:49:38;;;;;;;0.10;0.10;;;;;;;10.58;69.88;103577.25;5099317;28;20035;-85
2021/12/16 02:52:04;;;;;;;0.17;0.17;;;;;;;10.61;69.86;103582.59;5107581;28;20020;-85
2021/12/16 02:54:31;;;;;;;0.20;0.20;;;;;;;10.62;69.76;103581.75;5094617;28;20043;-85
2021/12/16 02:56:57;;;;;;;0.17;0.17;;;;;;;10.65;70.14;103576.53;5107548;28;20403;-84
2021/12/16 02:59:27;;;;;;;0.25;0.25;;;;;;;10.66;69.91;103573.00;5111999;28;20043;-85
2021/12/16 03:01:56;;;;;;;0.10;0.10;;;;;;;10.65;69.68;103568.59;5107304;28;20191;-84
2021/12/16 03:04:26;;;;;;;0.10;0.10;;;;;;;10.60;69.82;103566.66;5111608;28;20047;-85
2021/12/16 03:06:56;;;;;;;0.10;0.10;;;;;;;10.58;69.79;103571.03;5111709;28;20027;-86
2021/12/16 03:15:03;;;;;;;0.30;0.30;;;;;;;10.50;69.67;103563.81;5071301;27;20857;-84
2021/12/16 03:17:44;;;;;;;3.85;0.80;;;;;;;10.49;69.52;103569.06;5071926;28;20032;-85
2021/12/16 03:20:21;;;;;;;0.50;0.50;;;;;;;10.42;69.62;103570.69;5071802;28;20039;-85
2021/12/16 03:23:05;;;;;;;0.17;0.17;;;;;;;10.42;69.70;103561.81;5071514;28;20040;-86
2021/12/16 03:31:21;;;;;;;0.10;0.10;;;;;;;10.33;69.68;103573.03;5090660;27;20202;-86
2021/12/16 03:33:57;;;;;;;0.20;0.20;;;;;;;10.29;69.41;103577.41;5047479;28;20037;-85
2021/12/16 03:39:10;;;;;;;0.10;0.10;;;;;;;10.29;69.88;103579.13;5091805;27;20789;-85
2021/12/16 03:41:48;;;;;;;0.20;0.20;;;;;;;10.28;69.32;103580.91;5062677;28;20112;-85
2021/12/16 03:44:37;;;;;;;0.10;0.10;;;;;;;10.22;69.61;103575.44;5049499;28;20108;-84
2021/12/16 03:47:14;;;;;;;0.13;0.13;;;;;;;10.23;69.61;103576.34;5045817;28;20026;-85
2021/12/16 03:49:52;;;;;;;0.10;0.10;;;;;;;10.20;69.49;103577.16;5048758;28;20029;-84
2021/12/16 03:52:19;;;;;;;0.40;0.40;;;;;;;10.15;69.77;103577.03;5042434;28;20061;-83
2021/12/16 03:54:51;;;;;;;0.10;0.10;;;;;;;10.09;69.95;103578.63;5047877;28;20025;-84
2021/12/16 03:57:21;;;;;;;0.20;0.20;;;;;;;10.14;69.66;103569.97;5046036;28;20034;-85
2021/12/16 03:59:49;;;;;;;0.10;0.10;;;;;;;10.13;69.83;103577.84;5038010;28;20461;-85
2021/12/16 04:02:21;;;;;;;0.20;0.20;;;;;;;10.14;69.95;103571.69;5042433;28;20096;-85
2021/12/16 04:04:51;;;;;;;1.05;1.05;;;;;;;10.14;69.90;103567.31;5041228;28;20060;-84
2021/12/16 04:07:19;;;;;;;0.03;0.03;;;;;;;10.11;69.58;103575.16;5044746;28;20041;-84
2021/12/16 04:09:48;;;;;;;0.10;0.10;;;;;;;10.07;69.74;103570.66;5048835;28;20039;-83
2021/12/16 04:12:19;;;;;;;0.10;0.10;;;;;;;10.08;69.71;103587.44;5032006;28;20030;-86
2021/12/16 04:14:47;;;;;;;0.10;0.10;;;;;;;10.07;69.67;103581.25;5039315;28;20030;-85
2021/12/16 04:17:17;;;;;;;0.10;0.10;;;;;;;10.07;70.21;103582.97;5039391;28;20042;-85
2021/12/16 04:19:43;;;;;;;0.10;0.10;;;;;;;10.01;70.19;103581.09;5039652;28;20034;-84
2021/12/16 04:22:17;;;;;;;0.20;0.20;;;;;;;10.02;69.60;103586.41;5042037;28;20491;-84
2021/12/16 04:24:47;;;;;;;0.10;0.10;;;;;;;9.97;69.74;103587.13;5047719;28;20044;-85
2021/12/16 04:27:15;;;;;;;0.10;0.10;;;;;;;9.94;69.79;103595.91;5038380;28;20025;-84
2021/12/16 04:29:41;;;;;;;0.65;0.65;;;;;;;9.91;69.78;103589.66;5039503;28;20049;-84
2021/12/16 04:32:08;;;;;;;0.10;0.10;;;;;;;9.89;70.03;103586.94;5041633;28;20494;-85
2021/12/16 04:34:35;;;;;;;0.10;0.10;;;;;;;9.87;70.11;103588.66;5044910;28;20036;-85
2021/12/16 04:37:02;;;;;;;2.33;1.95;;;;;;;9.87;70.03;103583.38;5042851;28;20400;-85
2021/12/16 04:39:32;;;;;;;0.10;0.10;;;;;;;9.86;69.90;103584.22;5039070;28;20025;-84
2021/12/16 04:41:58;;;;;;;0.20;0.20;;;;;;;9.84;69.74;103593.88;5046282;28;20159;-85
2021/12/16 04:44:26;;;;;;;0.10;0.10;;;;;;;9.85;69.59;103595.66;5043418;28;20468;-85
2021/12/16 04:46:55;;;;;;;1.15;1.15;;;;;;;9.90;69.53;103591.38;5035263;28;20026;-86
2021/12/16 04:49:21;;;;;;;3.25;0.75;;;;;;;9.90;69.90;103590.50;5031577;28;20077;-86
2021/12/16 04:51:53;;;;;;;0.10;0.10;;;;;;;9.88;69.76;103583.41;5033377;28;20180;-85
2021/12/16 04:54:23;;;;;;;0.32;0.32;;;;;;;9.84;70.25;103578.91;5023615;28;20035;-86
2021/12/16 04:56:51;;;;;;;0.10;0.10;;;;;;;9.86;69.62;103592.16;5027715;28;20021;-85
2021/12/16 04:59:20;;;;;;;0.85;0.85;;;;;;;9.83;69.74;103592.06;5037134;28;20112;-85
2021/12/16 05:01:50;;;;;;;0.10;0.10;;;;;;;9.81;69.77;103593.81;5025015;28;20033;-85
2021/12/16 05:04:17;;;;;;;0.20;0.20;;;;;;;9.77;69.59;103587.53;5016958;28;20037;-85
2021/12/16 05:06:43;;;;;;;0.17;0.17;;;;;;;9.77;69.53;103595.47;5020824;28;20126;-85
2021/12/16 05:09:17;;;;;;;0.20;0.20;;;;;;;9.77;69.63;103599.84;5027082;28;20034;-84
2021/12/16 05:11:43;;;;;;;0.55;0.28;;;;;;;9.76;69.52;103606.91;5023184;28;20049;-84
2021/12/16 05:14:09;;;;;;;0.20;0.20;;;;;;;9.75;69.62;103609.50;5035506;28;20048;-85
2021/12/16 05:16:36;;;;;;;0.85;0.85;;;;;;;9.70;69.21;103610.25;5021778;28;20080;-83
2021/12/16 05:19:02;;;;;;;0.20;0.20;;;;;;;9.66;69.63;103604.84;5024700;28;20038;-84
2021/12/16 05:21:44;;;;;;;0.10;0.10;;;;;;;9.62;69.45;103609.16;5021949;28;20025;-85
2021/12/16 05:24:26;;;;;;;0.30;0.30;;;;;;;9.63;69.46;103615.34;5030669;28;20495;-86
2021/12/16 05:26:57;;;;;;;0.10;0.10;;;;;;;9.64;69.85;103625.97;5031540;28;20446;-85
2021/12/16 05:29:25;;;;;;;0.20;0.20;;;;;;;9.63;69.99;103625.94;5029161;28;20055;-85
2021/12/16 05:31:53;;;;;;;0.10;0.10;;;;;;;9.63;70.46;103626.84;5028830;28;20029;-85
2021/12/16 05:34:21;;;;;;;0.10;0.10;;;;;;;9.69;69.99;103627.03;5026398;28;20160;-86
2021/12/16 05:36:48;;;;;;;0.10;0.10;;;;;;;9.73;69.83;103632.41;5025233;28;20042;-85
2021/12/16 05:39:16;;;;;;;0.10;0.10;;;;;;;9.76;69.88;103632.47;5025592;28;20030;-85
2021/12/16 05:41:49;;;;;;;0.30;0.30;;;;;;;9.74;69.86;103628.91;5023221;28;20124;-87
2021/12/16 05:44:16;;;;;;;0.20;0.20;;;;;;;9.70;69.91;103639.38;5025927;28;20033;-86
2021/12/16 05:46:42;;;;;;;0.10;0.10;;;;;;;9.67;69.65;103644.59;5024897;28;20029;-82
2021/12/16 05:49:13;;;;;;;0.10;0.10;;;;;;;9.64;69.82;103640.97;5021650;28;20022;-87
2021/12/16 05:51:42;;;;;;;0.10;0.10;;;;;;;9.56;69.29;103640.75;5022497;28;20034;-86
2021/12/16 05:54:09;;;;;;;0.10;0.10;;;;;;;9.49;69.10;103638.78;5024710;28;20028;-85
2021/12/16 05:56:38;;;;;;;0.17;0.17;;;;;;;9.45;69.58;103647.47;5025677;28;20034;-84
2021/12/16 05:59:06;;;;;;;0.40;0.40;;;;;;;9.42;69.01;103644.72;5026842;28;20117;-82
2021/12/16 06:01:35;;;;;;;0.43;0.43;;;;;;;9.43;68.88;103654.47;5029310;28;20030;-85
2021/12/16 06:04:02;;;;;;;0.10;0.10;;;;;;;9.36;69.34;103649.00;5032949;28;20539;-85
2021/12/16 06:06:29;;;;;;;0.20;0.20;;;;;;;9.28;69.13;103650.50;5030108;28;20042;-85
2021/12/16 06:08:56;;;;;;;0.10;0.10;;;;;;;9.28;69.69;103641.66;5028823;28;20069;-86
2021/12/16 06:11:29;;;;;;;0.10;0.10;;;;;;;9.29;69.51;103639.06;5028664;28;20103;-84
2021/12/16 06:14:10;;;;;;;;;;;;;;;9.41;69.33;103641.19;5034192;28;20042;-90
2021/12/16 06:27:48;;;;;;;0.10;0.10;;;;;;;9.13;69.12;103652.69;5015312;28;20038;-84
2021/12/16 06:30:19;;;;;;;0.20;0.20;;;;;;;9.14;68.86;103662.41;5015992;28;20103;-82
2021/12/16 06:32:46;;;;;;;0.10;0.10;;;;;;;9.11;69.27;103662.31;5035826;28;20033;-84
2021/12/16 06:35:13;;;;;;;0.28;0.28;;;;;;;9.07;69.27;103666.59;5035519;28;20022;-85
2021/12/16 06:37:39;;;;;;;0.20;0.20;;;;;;;9.09;69.29;103677.25;5034026;28;20315;-84
2021/12/16 06:40:08;;;;;;;0.10;0.10;;;;;;;9.14;68.99;103683.56;5035685;28;20482;-85
2021/12/16 06:42:37;;;;;;;0.30;0.30;;;;;;;9.15;69.18;103686.25;5035084;28;20037;-85
2021/12/16 06:45:09;;;;;;;0.20;0.20;;;;;;;9.14;69.05;103683.56;5034847;28;20025;-84
2021/12/16 06:47:43;;;;;;;0.20;0.20;;;;;;;9.14;69.46;103687.09;5032237;28;20029;-84
2021/12/16 06:50:14;;;;;;;0.20;0.20;;;;;;;9.04;68.92;103682.38;5031952;28;20029;-85
2021/12/16 06:52:46;;;;;;;0.10;0.10;;;;;;;8.97;69.68;103676.00;5030748;28;20507;-84
2021/12/16 06:55:23;;;;;;;0.10;0.10;;;;;;;9.01;69.46;103682.25;5031231;28;20029;-85
2021/12/16 06:57:54;;;;;;;0.13;0.13;;;;;;;9.05;69.37;103695.66;5032353;28;20029;-86
2021/12/16 07:00:34;;;;;;;0.10;0.10;;;;;;;9.06;69.26;103686.00;5027789;28;20036;-85
2021/12/16 07:03:03;;;;;;;0.13;0.13;;;;;;;9.04;69.87;103685.91;5033766;28;20257;-83
2021/12/16 07:05:33;;;;;;;0.10;0.10;;;;;;;9.08;69.53;103700.13;5034016;28;20129;-84
2021/12/16 07:08:00;;;;;;;0.30;0.30;;;;;;;9.12;69.74;103701.13;5032303;28;20142;-86
2021/12/16 07:10:29;;;;;;;0.10;0.10;;;;;;;9.14;69.74;103702.09;5033588;28;20032;-84
2021/12/16 07:12:58;;;;;;;0.20;0.20;;;;;;;9.13;69.54;103700.28;5014232;28;20037;-84
2021/12/16 07:15:28;;;;;;;0.10;0.10;;;;;;;9.11;69.84;103700.25;5028205;28;20037;-84
2021/12/16 07:17:55;;;;;;;0.10;0.10;;;;;;;9.09;69.66;103707.22;5033027;28;20143;-84
2021/12/16 07:20:26;;;;;;;0.10;0.10;;;;;;;9.13;69.98;103713.50;5033435;28;20038;-85
2021/12/16 07:22:53;;;;;;;0.20;0.20;;;;;;;9.12;69.81;103720.56;5032325;28;20083;-82
2021/12/16 07:25:20;;;;;;;0.10;0.10;;;;;;;9.13;69.58;103724.09;5032844;28;20075;-83
2021/12/16 07:27:46;;;;;;;4.10;0.65;;;;;;;9.12;69.18;103727.59;5032630;28;20551;-84
2021/12/16 07:30:15;;;;;;;0.20;0.20;;;;;;;9.11;69.32;103728.44;5032352;28;20445;-83
2021/12/16 07:32:42;;;;;;;0.10;0.10;;;;;;;9.04;69.44;103730.88;5031345;28;20041;-84
2021/12/16 07:35:14;;;;;;;0.20;0.20;;;;;;;9.04;69.79;103746.75;5031114;28;20033;-83
2021/12/16 07:37:40;;;;;;;0.20;0.20;;;;;;;9.03;69.16;103742.31;5031768;28;20026;-82
2021/12/16 07:40:09;;;;;;;2.55;2.38;;;;;;;9.03;69.71;103752.91;5032099;28;20026;-83
2021/12/16 07:42:48;;;;;;;0.20;0.20;;;;;;;8.99;68.78;103763.31;5032190;28;20087;-85
2021/12/16 07:45:17;;;;;;;0.20;0.20;;;;;;;8.92;69.16;103771.88;5027715;28;20076;-83
2021/12/16 07:47:45;;;;;;;0.10;0.10;;;;;;;8.85;69.04;103762.88;5030695;28;20082;-83
2021/12/16 07:50:12;;;;;;;0.10;0.10;;;;;;;8.82;68.68;103768.94;5031463;28;20472;-83
2021/12/16 07:52:40;;;;;;;0.20;0.20;;;;;;;8.81;69.02;103775.06;5032312;28;20060;-84
2021/12/16 07:55:08;;;;;;;0.10;0.10;;;;;;;8.79;69.03;103776.75;5031157;28;20021;-84
2021/12/16 07:57:35;;;;;;;0.10;0.10;;;;;;;8.78;69.07;103779.34;5032244;28;20025;-83
2021/12/16 08:00:02;;;;;;;0.10;0.10;;;;;;;8.73;69.01;103787.13;5032090;28;20030;-82
2021/12/16 08:02:28;;;;;;;0.15;0.15;;;;;;;8.69;69.10;103785.22;5026273;28;20033;-83
2021/12/16 08:04:54;;;;;;;0.22;0.22;;;;;;;8.64;68.62;103785.03;5027438;28;20030;-84
2021/12/16 08:07:21;;;;;;;0.10;0.10;;;;;;;8.60;68.57;103785.78;5028775;28;20026;-81
2021/12/16 08:09:50;;;;;;;0.10;0.10;;;;;;;8.61;68.95;103786.69;5031335;28;20044;-84
2021/12/16 08:12:18;;;;;;;0.10;0.10;;;;;;;8.65;69.21;103796.50;5025760;28;20033;-84
2021/12/16 08:14:45;;;;;;;0.10;0.10;;;;;;;8.63;68.56;103801.75;5029061;28;20045;-83
2021/12/16 08:17:13;;;;;;;0.20;0.20;;;;;;;8.63;68.88;103796.47;5031651;28;20026;-82
2021/12/16 08:19:40;;;;;;;0.10;0.10;;;;;;;8.64;68.72;103797.38;5031413;28;20025;-84
2021/12/16 08:22:07;;;;;;;0.10;0.10;;;;;;;8.70;68.90;103806.41;5031936;28;20065;-83
2021/12/16 08:24:34;;;;;;;0.10;0.10;;;;;;;8.74;69.06;103816.25;5031737;28;20048;-84
2021/12/16 08:27:00;;;;;;;0.20;0.20;;;;;;;8.76;68.91;103807.47;5030527;28;20061;-83
2021/12/16 08:29:26;;;;;;;0.10;0.10;;;;;;;8.74;69.53;103816.25;5035432;28;20021;-84
2021/12/16 08:31:55;;;;;;;0.10;0.10;;;;;;;8.79;69.56;103820.81;5035978;28;20030;-84
2021/12/16 08:34:22;;;;;;;0.13;0.13;;;;;;;8.82;69.42;103812.97;5035722;28;20075;-84
2021/12/16 08:36:48;;;;;;;0.10;0.10;;;;;;;8.81;69.12;103811.16;5035059;28;21001;-84
2021/12/16 08:39:16;;;;;;;0.10;0.10;;;;;;;8.83;69.21;103820.06;5034264;28;20029;-83
2021/12/16 08:41:47;;;;;;;0.20;0.20;;;;;;;8.93;69.26;103816.88;5034577;28;20083;-84
2021/12/16 08:44:14;;;;;;;0.20;0.20;;;;;;;8.98;69.63;103832.94;5035253;28;20105;-84
2021/12/16 08:46:47;;;;;;;0.20;0.20;;;;;;;9.02;69.58;103832.16;5034878;28;20047;-82
2021/12/16 08:49:14;;;;;;;0.20;0.20;;;;;;;9.02;69.14;103830.44;5035595;28;20036;-83
2021/12/16 08:51:46;;;;;;;0.57;0.57;;;;;;;9.03;68.95;103844.56;5033717;28;20025;-82
2021/12/16 08:54:13;;;;;;;1.83;1.73;;;;;;;9.01;69.36;103848.88;5034247;28;20034;-83
2021/12/16 08:56:40;;;;;;;0.10;0.10;;;;;;;8.99;69.08;103838.25;5036226;28;20137;-84
2021/12/16 08:59:07;;;;;;;0.75;0.35;;;;;;;9.01;69.15;103851.53;5034994;28;20033;-83
2021/12/16 09:01:37;;;;;;;0.10;0.10;;;;;;;9.03;68.86;103848.13;5035107;28;20389;-83
2021/12/16 09:04:04;;;;;;;0.10;0.10;;;;;;;9.07;69.16;103852.66;5035000;28;20437;-83
2021/12/16 09:06:30;;;;;;;0.10;0.10;;;;;;;9.11;69.03;103847.47;5034244;28;20097;-83
2021/12/16 09:08:57;;;;;;;0.10;0.10;;;;;;;9.16;69.13;103856.44;5033575;28;20041;-83
2021/12/16 09:11:25;;;;;;;1.90;1.17;;;;;;;9.24;69.02;103860.28;5033549;28;20030;-82
2021/12/16 09:13:55;;;;;;;0.20;0.20;;;;;;;9.31;69.01;103851.69;5032639;28;20392;-82
2021/12/16 09:16:25;;;;;;;0.10;0.10;;;;;;;9.36;69.18;103852.75;5032657;28;20021;-83
2021/12/16 09:18:52;;;;;;;0.10;0.10;;;;;;;9.39;69.79;103855.50;5032961;28;20045;-84
2021/12/16 09:21:25;;;;;;;0.10;0.10;;;;;;;9.50;69.49;103852.31;5033877;28;20045;-83
2021/12/16 09:23:53;;;;;;;0.30;0.30;;;;;;;9.56;69.26;103865.75;5033130;28;20034;-84
2021/12/16 09:26:20;;;;;;;0.10;0.10;;;;;;;9.62;69.38;103860.66;5033550;28;20041;-84
2021/12/16 09:28:48;;;;;;;0.10;0.10;;;;;;;9.69;69.20;103867.03;5034173;28;20030;-83
2021/12/16 09:31:18;;;;;;;0.20;0.20;;;;;;;9.77;69.21;103857.59;5034792;28;20033;-85
2021/12/16 09:33:50;;;;;;;0.13;0.13;;;;;;;9.82;69.56;103861.28;5034779;28;20040;-84
2021/12/16 09:36:19;;;;;;;0.20;0.20;;;;;;;9.89;69.31;103862.38;5034578;28;20017;-83
2021/12/16 09:38:48;;;;;;;0.20;0.20;;;;;;;9.94;69.34;103873.13;5030888;28;20435;-84
2021/12/16 09:41:15;;;;;;;0.10;0.10;;;;;;;10.01;69.42;103861.88;5035047;28;20034;-83
2021/12/16 09:43:44;;;;;;;0.63;0.63;;;;;;;10.10;69.48;103861.25;5033912;28;20357;-83
2021/12/16 09:46:14;;;;;;;0.17;0.17;;;;;;;10.15;70.07;103875.53;5034394;28;20030;-84
2021/12/16 09:48:42;;;;;;;0.17;0.17;;;;;;;10.25;69.72;103868.78;5034129;28;20476;-84
2021/12/16 09:51:16;;;;;;;0.10;0.10;;;;;;;10.33;69.68;103878.75;5033607;28;20105;-86
2021/12/16 09:53:44;;;;;;;0.10;0.10;;;;;;;10.43;69.78;103879.03;5032596;28;20056;-83
2021/12/16 09:56:11;;;;;;;0.10;0.10;;;;;;;10.51;69.84;103881.06;5031352;28;20014;-83
2021/12/16 09:58:42;;;;;;;0.25;0.25;;;;;;;10.60;69.77;103882.19;5032852;28;20026;-83
2021/12/16 10:01:11;;;;;;;0.10;0.10;;;;;;;10.68;69.72;103873.59;5032564;28;20112;-83
2021/12/16 10:03:42;;;;;;;0.13;0.13;;;;;;;10.79;69.65;103875.63;5033262;28;20030;-83
2021/12/16 10:06:10;;;;;;;0.20;0.20;;;;;;;10.84;70.20;103882.88;5033844;28;20112;-84
2021/12/16 10:08:36;;;;;;;0.20;0.20;;;;;;;10.94;69.82;103880.47;5033358;28;20029;-83
2021/12/16 10:11:05;;;;;;;0.10;0.10;;;;;;;11.07;70.07;103879.06;5032802;28;20440;-82
2021/12/16 10:13:42;;;;;;;0.20;0.20;;;;;;;11.14;69.82;103887.22;5033353;28;20026;-84
2021/12/16 10:18:53;;;;;;;0.10;0.10;;;;;;;11.35;70.53;103878.00;5069878;27;20880;-83
2021/12/16 10:21:22;;;;;;;0.10;0.10;;;;;;;11.45;69.96;103880.06;5069326;28;20024;-83
2021/12/16 10:23:48;;;;;;;0.20;0.20;;;;;;;11.51;70.45;103879.28;5069817;28;20033;-83
2021/12/16 10:26:20;;;;;;;0.57;0.57;;;;;;;11.61;70.22;103886.66;5069721;28;20036;-83
2021/12/16 10:28:49;;;;;;;0.10;0.10;;;;;;;11.68;71.02;103881.50;5070392;28;20025;-83
2021/12/16 10:31:26;;;;;;;0.40;0.40;;;;;;;11.78;70.52;103888.81;5070147;28;20037;-82
2021/12/16 10:33:58;;;;;;;0.30;0.30;;;;;;;11.84;70.33;103886.31;5069650;28;20029;-83
2021/12/16 10:36:32;;;;;;;0.10;0.10;;;;;;;11.88;70.57;103877.53;5069407;28;20025;-84
2021/12/16 10:44:27;;;;;;;0.50;0.50;;;;;;;12.13;71.28;103879.00;5074496;27;20419;-82
2021/12/16 10:47:00;;;;;;;;;;;;;;;12.36;70.27;103873.31;5070388;28;20395;-82
2021/12/16 10:49:32;;;;;;;0.20;0.20;;;;;;;12.33;70.75;103883.88;5069800;28;20011;-82
2021/12/16 10:52:02;;;;;;;0.20;0.20;;;;;;;12.39;70.40;103889.31;5069551;28;20032;-82
2021/12/16 10:54:34;;;;;;;0.10;0.10;;;;;;;12.50;70.19;103896.63;5068616;28;20059;-82
2021/12/16 10:57:04;;;;;;;;;;;;;;;12.70;69.96;103889.06;5069635;28;20037;-82
2021/12/16 10:59:35;;;;;;;0.10;0.10;;;;;;;12.68;70.05;103891.69;5069354;28;19920;-82
2021/12/16 11:02:12;;;;;;;0.20;0.20;;;;;;;12.83;70.17;103895.53;5069191;28;20025;-82
2021/12/16 11:07:40;;;;;;;0.40;0.40;;;;;;;13.01;70.08;103889.63;5073335;27;20398;-82
2021/12/16 11:18:20;;;;;;;0.10;0.10;;;;;;;13.49;69.57;103893.19;5072958;27;20401;-83
2021/12/16 11:23:38;;;;;;;0.10;0.10;;;;;;;13.61;69.79;103882.75;5060694;27;20403;-81
2021/12/16 11:26:15;;;;;;;0.10;0.10;;;;;;;13.67;69.29;103888.16;5049483;28;20017;-81
2021/12/16 11:28:52;;;;;;;0.40;0.40;;;;;;;13.75;69.13;103881.16;5048731;28;20421;-82
2021/12/16 11:31:23;;;;;;;0.17;0.17;;;;;;;13.66;69.33;103869.50;5049807;28;20029;-82
2021/12/16 11:33:55;;;;;;;0.10;0.10;;;;;;;13.82;68.54;103863.53;5048811;28;20132;-82
2021/12/16 11:36:25;;;;;;;0.20;0.20;;;;;;;13.81;68.69;103875.06;5048845;28;20067;-81
2021/12/16 11:39:01;;;;;;;0.30;0.30;;;;;;;13.85;68.13;103868.88;5048232;28;20116;-82
2021/12/16 11:47:04;;;;;;;0.73;0.73;;;;;;;13.97;68.92;103864.59;5069264;27;20394;-83
2021/12/16 11:49:36;;;;;;;0.47;0.47;;;;;;;13.95;67.77;103869.03;5069561;28;20037;-82
2021/12/16 11:54:55;;;;;;;0.10;0.10;;;;;;;14.13;68.22;103868.38;5029692;28;20414;-83
2021/12/16 12:10:59;;;;;;;0.10;0.10;;;;;;;14.30;67.32;103857.94;5071811;27;20423;-82
2021/12/16 12:19:09;;;;;;;0.32;0.30;;;;;;;14.39;66.78;103858.03;5088403;27;20223;-82
2021/12/16 12:24:21;;;;;;;1.05;1.00;;;;;;;14.49;66.64;103846.63;5056595;27;20403;-83
2021/12/16 12:26:58;;;;;;;0.43;0.43;;;;;;;14.66;67.25;103853.97;5047131;28;20025;-83
2021/12/16 12:29:28;;;;;;;0.20;0.20;;;;;;;14.68;66.89;103854.88;5049456;28;20435;-83
2021/12/16 12:32:00;;;;;;;0.95;0.90;;;;;;;14.72;65.80;103854.03;5049961;28;20080;-83
2021/12/16 12:34:29;;;;;;;0.63;0.63;;;;;;;14.67;65.73;103845.97;5048767;28;20032;-83
2021/12/16 12:36:58;;;;;;;0.30;0.30;;;;;;;14.68;66.39;103849.56;5047913;28;20033;-84
2021/12/16 12:39:29;;;;;;;0.20;0.20;;;;;;;14.67;65.53;103853.09;5044844;28;20022;-84
2021/12/16 12:41:57;;;;;;;0.63;0.63;;;;;;;14.66;66.38;103851.28;5033749;28;20022;-84
2021/12/16 12:44:24;;;;;;;1.45;1.00;;;;;;;14.68;65.53;103849.56;5047181;28;20033;-84
2021/12/16 12:46:52;;;;;;;0.20;0.20;;;;;;;14.72;66.08;103851.34;5050195;28;20025;-84
2021/12/16 12:49:25;;;;;;;1.10;0.65;;;;;;;14.78;65.65;103855.84;5049485;28;20087;-85
2021/12/16 12:52:01;;;;;;;0.20;0.20;;;;;;;14.80;65.70;103863.00;5049215;28;20033;-86
2021/12/16 12:54:30;;;;;;;0.35;0.35;;;;;;;14.86;66.21;103867.53;5049088;28;20036;-85
2021/12/16 12:57:01;;;;;;;0.10;0.10;;;;;;;14.85;64.35;103865.72;5050543;28;20026;-85
2021/12/16 12:59:42;;;;;;;0.22;0.22;;;;;;;14.98;65.27;103864.09;5050224;28;20053;-86
2021/12/16 13:02:20;;;;;;;0.10;0.10;;;;;;;14.96;66.34;103865.84;5050112;28;20025;-85
2021/12/16 13:04:53;;;;;;;0.30;0.30;;;;;;;14.91;66.44;103854.22;5048592;28;20028;-85
2021/12/16 13:07:29;;;;;;;0.10;0.10;;;;;;;14.91;65.76;103854.22;5049622;28;20072;-90
2021/12/16 13:09:55;;;;;;;1.90;1.10;;;;;;;14.94;66.56;103857.81;5049757;28;20128;-86
2021/12/16 13:12:35;;;;;;;0.40;0.40;;;;;;;14.99;65.79;103855.16;5049824;28;20064;-85
2021/12/16 13:15:31;;;;;;;0.10;0.10;;;;;;;14.99;65.35;103855.16;5049256;28;20353;-84
2021/12/16 13:26:42;;;;;;;0.15;0.15;;;;;;;15.00;63.90;103851.63;5070938;27;20855;-83
2021/12/16 13:29:29;;;;;;;0.10;0.10;;;;;;;14.99;62.61;103847.16;5063862;28;20037;-83
2021/12/16 13:35:21;;;;;;;0.10;0.10;;;;;;;15.08;63.89;103860.63;5124194;27;20917;-82
2021/12/16 13:37:51;;;;;;;0.55;0.55;;;;;;;15.03;61.96;103854.34;5108134;28;20043;-83
2021/12/16 13:40:28;;;;;;;0.80;0.50;;;;;;;15.12;63.30;103850.88;5107610;28;20024;-82
2021/12/16 13:43:01;;;;;;;0.43;0.43;;;;;;;15.07;61.14;103858.81;5119061;28;20035;-83
2021/12/16 14:00:56;;;;;;;0.52;0.52;;;;;;;15.13;62.63;103852.66;5023267;28;20042;-82
2021/12/16 14:08:32;;;;;;;0.28;0.28;;;;;;;15.15;61.02;103866.91;5072532;27;20790;-83
2021/12/16 14:11:05;;;;;;;0.10;0.10;;;;;;;15.15;61.24;103872.25;5071277;28;20464;-83
2021/12/16 14:43:18;;;;;;;0.17;0.17;;;;;;;14.84;62.14;103883.53;5061549;28;22149;-85
2021/12/16 14:45:30;;;;;;;0.55;0.55;;;;;;;14.79;62.71;103887.94;5028258;28;20052;-83
2021/12/16 14:53:55;;;;;;;0.30;0.30;;;;;;;14.50;62.45;103893.75;5100570;27;20411;-83
2021/12/16 14:59:06;;;;;;;0.10;0.10;;;;;;;14.37;63.01;103897.16;5054819;27;20902;-84
2021/12/16 15:01:36;;;;;;;0.10;0.10;;;;;;;14.32;63.20;103894.44;5050795;28;20029;-84
2021/12/16 15:04:06;;;;;;;0.17;0.17;;;;;;;14.24;63.49;103898.75;5024581;28;20449;-84
2021/12/16 15:06:45;;;;;;;0.10;0.10;;;;;;;14.16;63.59;103901.31;5031266;28;20042;-83
2021/12/16 15:09:22;;;;;;;0.10;0.10;;;;;;;14.08;63.79;103905.63;5029542;28;20053;-84
2021/12/16 15:12:18;;;;;;;0.20;0.20;;;;;;;14.04;63.51;103903.81;5021307;28;20037;-83
2021/12/16 15:31:50;;;;;;;0.25;0.25;;;;;;;13.77;63.74;103915.88;5098346;27;20440;-84
2021/12/16 15:40:59;;;;;;;0.10;0.10;;;;;;;12.89;64.79;103928.47;5095529;27;20559;-82
2021/12/16 15:43:32;;;;;;;0.32;0.32;;;;;;;12.81;65.01;103927.44;5025414;28;1283048;-84
2021/12/16 15:46:06;;;;;;;0.10;0.10;;;;;;;12.78;64.90;103935.34;5050447;28;20036;-83
2021/12/16 15:48:38;;;;;;;0.10;0.10;;;;;;;12.74;65.90;103934.38;5046017;28;20100;-84
2021/12/16 15:51:12;;;;;;;0.28;0.28;;;;;;;12.71;65.25;103938.72;5049986;28;20076;-82
2021/12/16 15:53:52;;;;;;;0.10;0.10;;;;;;;12.62;65.17;103940.34;5048913;28;20231;-83
2021/12/16 15:56:27;;;;;;;0.10;0.10;;;;;;;12.54;65.36;103941.94;5046226;28;20120;-83
2021/12/16 15:58:57;;;;;;;0.10;0.10;;;;;;;12.46;65.61;103943.53;5045996;28;20025;-83
2021/12/16 16:01:29;;;;;;;0.13;0.13;;;;;;;12.39;65.78;103939.84;5044869;28;20033;-83
2021/12/16 16:03:58;;;;;;;0.20;0.20;;;;;;;12.34;65.88;103941.50;5051864;28;20112;-83
2021/12/16 16:06:25;;;;;;;0.10;0.10;;;;;;;12.29;65.64;103951.16;5049886;28;20279;-84
2021/12/16 16:08:57;;;;;;;1.10;1.10;;;;;;;12.25;65.90;103965.22;5046255;28;20102;-84
2021/12/16 16:11:31;;;;;;;0.20;0.20;;;;;;;12.21;65.80;103958.94;5055633;28;20022;-84
2021/12/16 16:14:03;;;;;;;1.65;1.10;;;;;;;12.14;66.30;103957.00;5055003;28;20472;-83
2021/12/16 16:16:48;;;;;;;0.30;0.30;;;;;;;12.08;65.65;103964.84;5048388;28;20489;-85